Aérodrome :
LOGIN :

S'inscrire | Disclaimer

   EN    FR    IT 

 










Légende :    VFR   VFR Marginal   IFR   IFR Intensif   IFR Très Intensif
Visi : 
Plafond : 
>= 8 km
>= 3000ft
5 à 8 km
1000 à 3000 ft
1500m à 5 km
500 à 1000 ft
800 à 1500m
200 à 500 ft
< 800m
< 200 ft
Symboles :   Orages  Brouillard  Fortes neiges  Fortes précipitations  Vent > 20 kt
SIGMETs :   Divers  Orages  Givrage  Turbulence  Onde Orograph.  Cendres Volcan.






- Altitude de l'aérodrome : 604 ft
- Code IATA : LCJ


EPLL - Lodz

DERNIER METAR :
  • 180430Z 08003KT 9999 MIFG NSC 06/06 Q1015

METARs EXPIRÉS :
  • 180400Z VRB01KT 9999 MIFG NSC 06/06 Q1015
  • 180330Z 06002KT 9999 MIFG NSC 06/05 Q1015
  • 180300Z 06003KT 9999 MIFG NSC 07/06 Q1015
  • 180230Z 06003KT 9999 MIFG NSC 08/07 Q1015
  • 180200Z VRB01KT 9999 MIFG NSC 08/07 Q1015

TAF TAF EPLL
Valide du 18 à 00h jusqu'au 19 à 00h UTC


172330Z 1800/1824 18005KT CAVOK
TEMPO 1800/1807 3000 BR
PROB40 1801/1806 1400 BR



MET'MAP, la Météo Aéronautique d'un coup d'oeil ! - Copyright ORBIFLY Décembre 2007 - Disclaimer

ORBIFLY MET'MAP TEAM :

Programmation & Développement : Alexandra Zaïnal
Conception & Développement : Baudouin d'Aumeries
Co-Programmation & Développement : Marc-Olivier Méhu
Soutien technique & logistique : Manuel Goepfert

Contact : metmap@orbifly.com




SOURCES & CREDITS :

   NOAA